Wautoma, WI (54982)

1:58 AM CDT on August 28, 2015 (GMT -0500)
Mt. Morris Township | | Change Station
CLOSE
Current Station
Personal Weather Station
Location: Wautoma, WI
Elevation: 912 ft
Nearby Weather Stations

Elev 912 ft 44.08 °N, 89.21 °W | Updated 5 minutes ago

Clear
Clear
60.1 °F
Feels Like 60.1 °F
N
0.0
Wind Variable Wind from ESE

Today
High -- | Low -- °F
--% Chance of Precip.
Yesterday
High -- | Low -- °F
Precip. -- in
6:15 AM 7:40 PM
Waxing Gibbous, 97% visible
Pressure 30.08 in
Visibility 10.0 miles
Clouds Clear
Dew Point 59 °F
Humidity 97%
Rainfall 0.00 in
Snow Depth Not available.
UV 0 out of 12
Pollen 9.80 out of 12
Air Quality Not available.
Flu Activity Not available.
METAR KY50 280556Z AUTO 00000KT 10SM CLR 13/13 A3010 RMK AO2 TSNO 56002 T01330133 10227 20133 402550066 SLP186
Pressure 30.08 in
Visibility 10.0 miles
Clouds Clear
Dew Point 59 °F
Humidity 97%
Rainfall 0.00 in
Snow Depth Not available.
UV 0 out of 12
Pollen 9.80 out of 12
Air Quality Not available.
Flu Activity Not available.
METAR KY50 280556Z AUTO 00000KT 10SM CLR 13/13 A3010 RMK AO2 TSNO 56002 T01330133 10227 20133 402550066 SLP186

10-Day Weather Forecast

×

Almanac

Astronomy

Aug. 28, 2015 Rise Set
Actual Time
Civil Twilight
Nautical Twilight
Astronomical Twilight
Moon
Length of Visible Light
Length of Day
Tomorrow will be .
, % of the Moon is Illuminated

Today's Extremes

State Highs State Lows

Community

WunderPhotos

Upload Photos

1,850,341 photos uploaded!

WunderBlogs® & News

Nearby

Air Quality

  Air Quality AQ Index Pollutant
Not available.

Snow Depth

Station Depth Elevation

Earthquake Activity

City Distance Mag. Time & Date
Minimum magnitude displayed is 2.5.

Coastal Water Temperatures

Place Temperature

Stations

Nearby Weather Stations

Station Location Temp. Windchill Dew Point Humidity Wind Precip. Elev Updated Type